トルマチェヴォ空港(ノヴォシビルスク)の過去48時間の天気

トルマチェヴォ空港(ノヴォシビルスク) (TOLMACHEVO)

現在時刻: 9/28 14:54 +06 (9/28 08:54 UTC) 以下の時間は現地時間です。

過去48時間のMETAR気象情報
時間 風向 風速(m/s) 視程 気温(℃) 湿度(%) 気圧(hPa) 天気現象
28 14:30 西 4 10km以上 15 45 1024
28 14:00 西北西 3 10km以上 14 47 1025
28 13:30 西 4 10km以上 14 47 1025
28 13:00 西南西 4 10km以上 14 47 1025
28 12:30 西 3 10km以上 13 51 1025
28 12:00 南西 3 10km以上 13 51 1026
28 11:30 南南西 2 10km以上 12 58 1026
28 11:00 不定 1 10km以上 11 62 1026
28 10:30 不定 1 10km以上 10 66 1027
28 10:00 不定 1 10km以上 9 71 1027
28 09:30 不定 1 10km以上 7 81 1027
28 09:00 不定 1 10km以上 5 87 1027
28 08:30 2 9000m 5 87 1027
28 08:00 1 6000m 4 93 1028
28 07:30 2 3900m 3 93 1028
28 07:00 2 8000m 2 100 1028 もや
28 06:30 2 6000m 1 100 1028
28 06:00 2 1600m 1 100 1028
28 05:30 南南東 1 250m 2 100 1028
28 05:00 南南東 2 1500m 0 100 1028
28 04:30 南南東 2 350m 2 100 1028
28 04:00 不定 1 2300m 1 100 1028
28 03:30 不定 1 1400m 1 100 1029
28 03:00 南南東 1 2800m 1 100 1029
28 02:30 静穏 0 8000m 1 100 1029
28 02:00 南南西 1 6000m 2 93 1029 もや
28 01:30 南南西 1 10km以上 2 100 1029
28 01:00 南西 1 10km以上 2 100 1029
28 00:30 西 1 10km以上 2 100 1029
28 00:00 西 1 10km以上 3 93 1030
27 23:30 西 1 10km以上 2 100 1030
27 23:00 西 2 10km以上 4 93 1030
27 22:30 西南西 2 10km以上 3 100 1030
27 22:00 西南西 2 10km以上 4 93 1030
27 21:30 西南西 3 10km以上 5 87 1030
27 21:00 西南西 3 10km以上 5 81 1030
27 20:30 西南西 3 10km以上 6 81 1030
27 20:00 南西 3 10km以上 7 81 1030
27 19:30 南南西 3 10km以上 7 81 1030
27 19:00 南南西 3 10km以上 8 76 1030
27 18:30 2 10km以上 8 76 1030
27 18:00 1 10km以上 9 71 1030
27 17:30 南南東 1 10km以上 10 66 1030
27 17:00 南東 1 10km以上 11 62 1030
27 16:30 不定 1 10km以上 11 62 1030
27 16:00 2 9000m 11 62 1030
27 15:30 2 10km以上 11 62 1030
27 15:00 不定 1 10km以上 11 62 1030
27 14:30 西北西 2 10km以上 10 66 1030
27 14:00 不定 1 10km以上 10 66 1030
27 13:30 静穏 0 10km以上 10 62 1030
27 13:00 不定 1 10km以上 10 66 1030
27 12:30 不定 1 10km以上 10 66 1030
27 12:00 不定 1 10km以上 9 71 1030
27 11:30 不定 1 10km以上 9 71 1030
27 11:00 静穏 0 10km以上 8 76 1030
27 10:30 不定 1 10km以上 8 76 1030
27 10:00 静穏 0 10km以上 7 81 1030
27 09:30 静穏 0 10km以上 7 81 1030
27 09:00 静穏 0 10km以上 7 81 1030
27 08:30 静穏 0 10km以上 7 81 1030
27 08:00 静穏 0 10km以上 6 93 1030
27 07:30 静穏 0 10km以上 6 93 1030
27 07:00 静穏 0 10km以上 6 93 1029
27 06:30 1 10km以上 6 87 1029
27 06:00 北北東 1 10km以上 5 100 1029
27 05:30 北北西 1 10km以上 5 100 1029
27 05:00 北西 1 10km以上 5 100 1029
27 04:30 静穏 0 10km以上 6 93 1029
27 04:00 北西 1 10km以上 5 100 1029
27 03:30 北北西 1 10km以上 5 100 1028
27 03:00 北北西 1 10km以上 6 93 1028
27 02:30 1 10km以上 6 93 1028
27 02:00 静穏 0 10km以上 6 87 1028
27 01:30 1 10km以上 6 87 1028
27 01:00 北北西 2 10km以上 6 87 1028
27 00:30 北北西 1 10km以上 6 87 1028
27 00:00 静穏 0 10km以上 6 87 1028
26 23:30 北西 1 10km以上 6 81 1028
26 23:00 北北西 1 10km以上 6 81 1028
26 22:30 北北東 1 10km以上 6 81 1027
26 22:00 1 10km以上 6 81 1027
26 21:30 北北西 1 10km以上 6 81 1027
26 21:00 1 10km以上 6 81 1027
26 20:30 2 10km以上 7 70 1027
26 20:00 3 10km以上 7 70 1027
26 19:30 3 10km以上 7 70 1027
26 19:00 4 10km以上 8 66 1026
26 18:30 2 10km以上 8 66 1026
26 18:00 3 10km以上 8 66 1025
26 17:30 3 10km以上 9 62 1025
26 17:00 3 10km以上 9 57 1024
26 16:30 4 10km以上 9 57 1024
26 16:00 4 10km以上 9 57 1024
26 15:30 4 10km以上 9 57 1024
26 15:00 5 10km以上 10 54 1024
UNNT 280830Z 28004MPS 9999 SCT045 15/03 Q1024 R25/090070 R16/090070 NOSIG RMK QFE758/1011
UNNT 280800Z 30003MPS 9999 SCT045 14/03 Q1025 R25/090070 R16/090070 NOSIG RMK QFE758/1011
UNNT 280730Z 28004MPS 9999 FEW045 14/03 Q1025 R25/090070 R16/090070 NOSIG RMK QFE759/1012
UNNT 280700Z 25004MPS 9999 FEW045 14/03 Q1025 R25/090070 R16/090070 NOSIG RMK QFE759/1012
UNNT 280630Z 26003MPS 210V290 CAVOK 13/03 Q1025 R25/090070 R16/090070 NOSIG RMK QFE759/1012
UNNT 280600Z 22003MPS 190V260 CAVOK 13/03 Q1026 R25/090070 R16/090070 NOSIG RMK QFE759/1012
UNNT 280530Z 21002MPS 120V280 CAVOK 12/04 Q1026 R25/090070 R16/090070 NOSIG RMK QFE759/1013
UNNT 280500Z VRB01MPS CAVOK 11/04 Q1026 R25/090070 R16/090070 NOSIG RMK QFE760/1013
UNNT 280430Z VRB01MPS CAVOK 10/04 Q1027 R25/090070 R16/090070 NOSIG RMK QFE760/1013
UNNT 280400Z VRB01MPS CAVOK 09/04 Q1027 R25/090070 R16/090070 NOSIG RMK QFE760/1014
UNNT 280330Z VRB01MPS CAVOK 07/04 Q1027 R25/090070 R16/090070 NOSIG RMK QFE760/1014
UNNT 280300Z VRB01MPS CAVOK 05/03 Q1027 R25/090070 R16/090070 NOSIG RMK QFE760/1014
UNNT 280230Z 17002MPS 9000 NSC 05/03 Q1027 R25/090070 R16/090070 NOSIG RMK QFE760/1014
UNNT 280200Z 18001MPS 6000 NSC 04/03 Q1028 R25/090070 R16/090070 NOSIG RMK QFE761/1014
UNNT 280130Z 17002MPS 140V210 3900 0800N FG NSC 03/02 Q1028 R25/090070 R16/090070 NOSIG RMK QFE761/1014
UNNT 280100Z 17002MPS 130V220 8000 1600E BR NSC 02/02 Q1028 R25/090070 R16/090070 NOSIG RMK QFE761/1014
UNNT 280030Z 18002MPS 6000 0250S FG NSC 01/01 Q1028 R25/090070 R16/090070 NOSIG RMK QFE761/1014
UNNT 280000Z 17002MPS 1600 0200E FG NSC 01/01 Q1028 R25/090070 R16/090070 NOSIG RMK QFE761/1014
UNNT 272330Z 16001MPS 0250 0100N FG NSC 02/02 Q1028 R25/090070 R16/090070 NOSIG RMK QFE761/1014
UNNT 272300Z 15002MPS 1500 0350E FG NSC 00/00 Q1028 R25/090070 R16/090070 NOSIG RMK QFE761/1015
UNNT 272230Z 16002MPS 0350 0050N FG NSC 02/02 Q1028 R25/090070 R16/090070 NOSIG RMK QFE761/1015
UNNT 272200Z VRB01MPS 2300 0300E FG NSC 01/01 Q1028 R25/090070 R16/090070 NOSIG RMK QFE761/1015
UNNT 272130Z VRB01MPS 1400 0200E FG NSC 01/01 Q1029 R25/090070 R16/090070 NOSIG RMK QFE761/1015
UNNT 272100Z 15001MPS 2800 0250S FG NSC 01/01 Q1029 R25/090070 R16/090070 NOSIG RMK QFE761/1015
UNNT 272030Z 00000MPS 8000 0650N FG NSC 01/01 Q1029 R25/090070 R16/090070 NOSIG RMK QFE762/1016
UNNT 272000Z 20001MPS 6000 2600E BR NSC 02/01 Q1029 R25/090070 R16/090070 NOSIG RMK QFE762/1016
UNNT 271930Z 20001MPS CAVOK 02/02 Q1029 R25/090070 R16/090070 NOSIG RMK QFE762/1016
UNNT 271900Z 23001MPS CAVOK 02/02 Q1029 R25/090070 R16/090070 NOSIG RMK QFE762/1016
UNNT 271830Z 27001MPS CAVOK 02/02 Q1029 R25/090070 R16/090070 NOSIG RMK QFE762/1016
UNNT 271800Z 26001MPS CAVOK 03/02 Q1030 R25/090070 R16/090070 NOSIG RMK QFE762/1016
UNNT 271730Z 28001MPS CAVOK 02/02 Q1030 R25/090070 R16/090070 NOSIG RMK QFE762/1016
UNNT 271700Z 27002MPS CAVOK 04/03 Q1030 R25/090070 R16/090070 NOSIG RMK QFE762/1016
UNNT 271630Z 25002MPS CAVOK 03/03 Q1030 R25/090070 R16/090070 NOSIG RMK QFE762/1016
UNNT 271600Z 24002MPS CAVOK 04/03 Q1030 R25/090070 R16/090070 NOSIG RMK QFE762/1016
UNNT 271530Z 24003MPS CAVOK 05/03 Q1030 R25/090070 R16/090070 NOSIG RMK QFE762/1016
UNNT 271500Z 25003MPS CAVOK 05/02 Q1030 R25/090070 R16/090070 NOSIG RMK QFE762/1017
UNNT 271430Z 24003MPS 9999 NSC 06/03 Q1030 R25/090070 R16/090070 NOSIG RMK QFE762/1017
UNNT 271400Z 22003MPS CAVOK 07/04 Q1030 R25/090070 R16/090070 NOSIG RMK QFE762/1017
UNNT 271330Z 21003MPS 9999 NSC 07/04 Q1030 R25/090070 R16/090070 NOSIG RMK QFE762/1016
UNNT 271300Z 20003MPS 9999 NSC 08/04 Q1030 R25/090070 R16/090070 NOSIG RMK QFE762/1016
UNNT 271230Z 19002MPS 9999 NSC 08/04 Q1030 R25/090070 R16/090070 NOSIG RMK QFE762/1016
UNNT 271200Z 17001MPS 9999 SCT043 09/04 Q1030 R07/090070 R16/090070 NOSIG RMK QFE762/1016
UNNT 271130Z 15001MPS 9999 BKN042 10/04 Q1030 R07/090070 R16/090070 NOSIG RMK QFE762/1016
UNNT 271100Z 13001MPS 9999 BKN042 11/04 Q1030 R25/090070 R16/090070 NOSIG RMK QFE762/1016
UNNT 271030Z VRB01MPS 9999 BKN040 11/04 Q1030 R25/090070 R16/090070 NOSIG RMK QFE762/1016
UNNT 271000Z 09002MPS 050V130 9000 BKN040 11/04 Q1030 R25/090070 R16/090070 NOSIG RMK QFE762/1016
UNNT 270930Z 10002MPS 040V140 9999 BKN040 11/04 Q1030 R25/090070 R16/090070 NOSIG RMK QFE762/1016
UNNT 270900Z VRB01MPS 9999 BKN040 11/04 Q1030 R25/090070 R16/090070 NOSIG RMK QFE762/1016
UNNT 270830Z 30002MPS 240V010 9999 BKN040 10/04 Q1030 R25/090070 R16/090070 NOSIG RMK QFE762/1016
UNNT 270800Z VRB01MPS 9999 BKN033 10/04 Q1030 R25/090070 R16/090070 NOSIG RMK QFE762/1017
UNNT 270730Z 00000MPS 9999 BKN033 10/03 Q1030 R25/090070 R16/090070 NOSIG RMK QFE762/1017
UNNT 270700Z VRB01MPS 9999 BKN033 10/04 Q1030 R25/090070 R16/090070 NOSIG RMK QFE762/1017
UNNT 270630Z VRB01MPS 9999 BKN037 10/04 Q1030 R25/090070 R16/090070 NOSIG RMK QFE762/1017
UNNT 270600Z VRB01MPS CAVOK 09/04 Q1030 R25/090070 R16/090070 NOSIG RMK QFE762/1017
UNNT 270530Z VRB01MPS 9999 OVC048 09/04 Q1030 R25/090070 R16/090070 NOSIG RMK QFE763/1017
UNNT 270500Z 00000MPS 9999 OVC030 08/04 Q1030 R25/090070 R16/090070 NOSIG RMK QFE763/1017
UNNT 270430Z VRB01MPS 9999 OVC043 08/04 Q1030 R25/090070 R16/090070 NOSIG RMK QFE763/1017
UNNT 270400Z 00000MPS 9999 OVC033 07/04 Q1030 R25/090070 R16/090070 NOSIG RMK QFE763/1017
UNNT 270330Z 00000MPS 9999 OVC033 07/04 Q1030 R25/090070 R16/090070 NOSIG RMK QFE763/1017
UNNT 270300Z 00000MPS 9999 OVC033 07/04 Q1030 R25/090070 R16/090070 NOSIG RMK QFE762/1017
UNNT 270230Z 00000MPS 9999 OVC033 07/04 Q1030 R25/090070 R16/090070 NOSIG RMK QFE762/1016
UNNT 270200Z 00000MPS 9999 OVC033 06/05 Q1030 R25/090070 R16/090070 NOSIG RMK QFE762/1016
UNNT 270130Z 00000MPS 9999 OVC032 06/05 Q1030 R25/090070 R16/090070 NOSIG RMK QFE762/1016
UNNT 270100Z 00000MPS 9999 OVC031 06/05 Q1029 R25/090070 R16/090070 NOSIG RMK QFE762/1016
UNNT 270030Z 08001MPS 9999 OVC026 06/04 Q1029 R25/090070 R16/090070 NOSIG RMK QFE762/1016
UNNT 270000Z 02001MPS 9999 OVC024 05/05 Q1029 R25/090070 R16/090070 NOSIG RMK QFE762/1016
UNNT 262330Z 34001MPS 9999 OVC024 05/05 Q1029 R25/090070 R16/090070 NOSIG RMK QFE762/1016
UNNT 262300Z 31001MPS 9999 OVC024 05/05 Q1029 R25/090070 R16/090070 NOSIG RMK QFE761/1015
UNNT 262230Z 00000MPS 9999 OVC024 06/05 Q1029 R07/090070 R16/090070 NOSIG RMK QFE761/1015
UNNT 262200Z 32001MPS 9999 OVC024 05/05 Q1029 R07/090070 R16/090070 NOSIG RMK QFE761/1015
UNNT 262130Z 34001MPS 9999 OVC024 05/05 Q1028 R07/090070 R16/090070 NOSIG RMK QFE761/1015
UNNT 262100Z 34001MPS 9999 OVC024 06/05 Q1028 R07/090070 R16/090070 NOSIG RMK QFE761/1015
UNNT 262030Z 35001MPS 9999 OVC024 06/05 Q1028 R07/090070 R16/090070 NOSIG RMK QFE761/1015
UNNT 262000Z 00000MPS 9999 OVC033 06/04 Q1028 R25/090070 R16/090070 NOSIG RMK QFE761/1015
UNNT 261930Z 01001MPS 9999 OVC031 06/04 Q1028 R25/090070 R16/090070 NOSIG RMK QFE761/1015
UNNT 261900Z 33002MPS 9999 OVC026 06/04 Q1028 R25/090070 R16/090070 NOSIG RMK QFE761/1014
UNNT 261830Z 33001MPS 9999 OVC030 06/04 Q1028 R07/090070 R16/090070 NOSIG RMK QFE761/1015
UNNT 261800Z 00000MPS 9999 OVC025 06/04 Q1028 R07/090070 R16/090070 NOSIG RMK QFE761/1014
UNNT 261730Z 32001MPS 9999 OVC027 06/03 Q1028 R07/090070 R16/090070 NOSIG RMK QFE761/1014
UNNT 261700Z 34001MPS 9999 OVC028 06/03 Q1028 R07/090070 R16/090070 NOSIG RMK QFE761/1014
UNNT 261630Z 03001MPS 9999 OVC031 06/03 Q1027 R07/090070 R16/090070 NOSIG RMK QFE761/1014
UNNT 261600Z 36001MPS 9999 OVC030 06/03 Q1027 R07/090070 R16/090070 NOSIG RMK QFE760/1014
UNNT 261530Z 34001MPS 9999 OVC038 06/03 Q1027 R07/090070 R16/090070 NOSIG RMK QFE760/1014
UNNT 261500Z 01001MPS 9999 OVC038 06/03 Q1027 R07/090070 R16/090070 NOSIG RMK QFE760/1014
UNNT 261430Z 36002MPS 9999 OVC040 07/02 Q1027 R25/090070 R16/090070 NOSIG RMK QFE760/1014
UNNT 261400Z 36003MPS 9999 OVC041 07/02 Q1027 R25/090070 R16/090070 NOSIG RMK QFE760/1013
UNNT 261330Z 35003MPS 9999 OVC041 07/02 Q1027 R25/090070 R16/090070 NOSIG RMK QFE760/1013
UNNT 261300Z 36004MPS 9999 OVC041 08/02 Q1026 R25/090070 R16/090070 NOSIG RMK QFE760/1013
UNNT 261230Z 35002MPS 9999 OVC047 08/02 Q1026 R25/090070 R16/090070 NOSIG RMK QFE759/1012
UNNT 261200Z 36003MPS 9999 OVC047 08/02 Q1025 R25/090070 R16/090070 NOSIG RMK QFE759/1012
UNNT 261130Z 36003MPS CAVOK 09/02 Q1025 R25/090070 R16/090070 NOSIG RMK QFE759/1012
UNNT 261100Z 35003MPS 9999 BKN043 09/01 Q1024 R25/090070 R16/090070 NOSIG RMK QFE758/1011
UNNT 261030Z 35004MPS 9999 BKN043 09/01 Q1024 R25/090070 R16/090070 NOSIG RMK QFE758/1011
UNNT 261000Z 36004MPS 9999 BKN043 09/01 Q1024 R25/090070 R16/090070 NOSIG RMK QFE758/1011
UNNT 260930Z 35004MPS 9999 BKN046 09/01 Q1024 R25/090070 R16/090070 NOSIG RMK QFE758/1011
UNNT 260900Z 35005MPS 9999 SCT042 10/01 Q1024 R25/090070 R16/090070 NOSIG RMK QFE758/1010